createdAt,value
2022-10-26T00:02:01.282Z,8.61
2022-10-26T00:04:28.808Z,8.53
2022-10-26T00:06:56.172Z,8.51
2022-10-26T00:09:23.752Z,8.48
2022-10-26T00:11:53.002Z,8.38
2022-10-26T00:14:20.424Z,8.38
2022-10-26T00:16:47.832Z,8.35
2022-10-26T00:19:15.188Z,8.36
2022-10-26T00:21:42.589Z,8.34
2022-10-26T00:24:11.159Z,8.32
2022-10-26T00:26:38.573Z,8.33
2022-10-26T00:29:07.324Z,8.37
2022-10-26T00:31:35.020Z,8.29
2022-10-26T00:34:02.369Z,8.32
2022-10-26T00:36:29.734Z,8.23
2022-10-26T00:38:58.873Z,8.34
2022-10-26T00:41:27.792Z,8.34
2022-10-26T00:43:55.609Z,8.29
2022-10-26T00:46:26.877Z,8.34
2022-10-26T00:48:56.503Z,8.36
2022-10-26T00:51:26.764Z,8.44
2022-10-26T00:53:55.276Z,8.38
2022-10-26T00:56:22.859Z,8.49
2022-10-26T00:58:50.328Z,8.56
2022-10-26T01:01:17.817Z,8.48
2022-10-26T01:03:46.663Z,8.52
2022-10-26T01:06:14.676Z,8.43
2022-10-26T01:08:43.148Z,8.40
2022-10-26T01:11:10.968Z,8.43
2022-10-26T01:13:38.505Z,8.55
2022-10-26T01:16:20.861Z,8.65
2022-10-26T01:18:56.109Z,8.74
2022-10-26T01:21:40.440Z,8.78
2022-10-26T01:24:17.986Z,8.83
2022-10-26T01:26:53.598Z,8.92
2022-10-26T01:29:51.246Z,8.92
2022-10-26T01:32:24.433Z,8.86
2022-10-26T01:34:55.112Z,8.96
2022-10-26T01:37:25.464Z,9.00
2022-10-26T01:39:55.336Z,8.93
2022-10-26T01:42:23.617Z,9.03
2022-10-26T01:44:54.673Z,8.95
2022-10-26T01:47:24.442Z,8.97
2022-10-26T01:49:54.821Z,8.90
2022-10-26T01:52:22.540Z,8.95
2022-10-26T01:54:49.880Z,8.93
2022-10-26T01:57:19.861Z,8.94
2022-10-26T02:00:02.373Z,9.01
2022-10-26T02:03:01.558Z,8.94
2022-10-26T02:05:56.664Z,9.10
2022-10-26T02:08:31.836Z,9.13
2022-10-26T02:11:07.645Z,9.16
2022-10-26T02:13:42.450Z,9.18
2022-10-26T02:16:17.704Z,9.10
2022-10-26T02:18:51.107Z,9.02
2022-10-26T02:21:21.677Z,8.93
2022-10-26T02:23:50.073Z,8.85
2022-10-26T02:26:19.210Z,8.75
2022-10-26T02:28:49.405Z,8.71
2022-10-26T02:31:17.445Z,8.89
2022-10-26T02:36:25.064Z,9.05
2022-10-26T02:38:53.240Z,9.00
2022-10-26T02:41:21.214Z,9.04
2022-10-26T02:43:53.366Z,9.03
2022-10-26T02:46:22.654Z,9.08
2022-10-26T02:48:51.368Z,9.08
2022-10-26T02:51:21.344Z,9.09
2022-10-26T02:53:51.258Z,9.12
2022-10-26T02:56:22.449Z,9.04
2022-10-26T02:58:52.865Z,9.06
2022-10-26T03:01:20.232Z,9.02
2022-10-26T03:03:47.725Z,9.07
2022-10-26T03:06:23.068Z,8.86
2022-10-26T03:08:50.629Z,8.88
2022-10-26T03:11:18.162Z,8.85
2022-10-26T03:13:45.577Z,8.91
2022-10-26T03:16:12.990Z,8.88
2022-10-26T03:18:40.312Z,8.87
2022-10-26T03:21:07.641Z,8.78
2022-10-26T03:23:36.334Z,8.66
2022-10-26T03:26:03.740Z,8.61
2022-10-26T03:28:31.931Z,8.58
2022-10-26T03:30:59.538Z,8.62
2022-10-26T03:33:27.870Z,8.65
2022-10-26T03:35:56.618Z,8.69
2022-10-26T03:38:24.480Z,8.73
2022-10-26T03:40:55.038Z,8.68
2022-10-26T03:43:22.427Z,8.73
2022-10-26T03:45:49.809Z,8.76
2022-10-26T03:48:17.208Z,8.63
2022-10-26T03:50:44.550Z,8.57
2022-10-26T03:53:11.924Z,8.57
2022-10-26T03:55:39.321Z,8.56
2022-10-26T03:58:08.014Z,8.66
2022-10-26T04:00:35.368Z,8.68
2022-10-26T04:03:04.832Z,8.72
2022-10-26T04:05:32.317Z,8.79
2022-10-26T04:08:02.941Z,8.83
2022-10-26T04:10:30.773Z,8.89
2022-10-26T04:13:00.133Z,8.94
2022-10-26T04:15:29.474Z,8.99
2022-10-26T04:17:57.708Z,9.09
2022-10-26T04:20:25.686Z,9.11
2022-10-26T04:23:00.001Z,9.21
2022-10-26T04:25:30.121Z,9.34
2022-10-26T04:28:00.207Z,9.41
2022-10-26T04:30:28.901Z,9.39
2022-10-26T04:32:56.322Z,9.49
2022-10-26T04:35:23.663Z,9.53
2022-10-26T04:37:51.049Z,9.56
2022-10-26T04:40:18.381Z,9.50
2022-10-26T04:42:47.778Z,9.36
2022-10-26T04:45:17.376Z,9.47
2022-10-26T04:47:46.034Z,9.36
2022-10-26T04:50:14.516Z,9.37
2022-10-26T04:52:42.118Z,9.49
2022-10-26T04:55:09.642Z,9.41
2022-10-26T04:57:37.139Z,9.43
2022-10-26T05:00:06.437Z,9.53
2022-10-26T05:02:33.805Z,9.58
2022-10-26T05:07:30.804Z,9.48
2022-10-26T05:09:58.347Z,9.47
2022-10-26T05:12:25.933Z,9.61
2022-10-26T05:14:58.881Z,9.67
2022-10-26T05:17:26.319Z,9.71
2022-10-26T05:19:55.510Z,9.57
2022-10-26T05:22:24.576Z,9.52
2022-10-26T05:24:51.958Z,9.41
2022-10-26T05:27:19.456Z,9.42
2022-10-26T05:29:46.886Z,9.47
2022-10-26T05:32:16.848Z,9.45
2022-10-26T05:34:44.193Z,9.49
2022-10-26T05:37:11.493Z,9.43
2022-10-26T05:39:40.200Z,9.40
2022-10-26T05:42:07.649Z,9.54
2022-10-26T05:44:35.001Z,9.55
2022-10-26T05:47:02.373Z,9.62
2022-10-26T05:49:29.760Z,9.54
2022-10-26T05:51:58.380Z,9.59
2022-10-26T05:54:25.748Z,9.69
2022-10-26T05:56:55.123Z,9.73
2022-10-26T05:59:22.821Z,9.75
2022-10-26T06:01:57.775Z,9.71
2022-10-26T06:04:31.696Z,9.77
2022-10-26T06:06:59.717Z,9.78
2022-10-26T06:09:27.555Z,9.78
2022-10-26T06:11:56.889Z,9.88
2022-10-26T06:14:24.808Z,9.92
2022-10-26T06:17:04.649Z,9.98
2022-10-26T06:19:43.905Z,10.09
2022-10-26T06:22:21.273Z,10.25
2022-10-26T06:24:58.700Z,10.25
2022-10-26T06:27:33.410Z,10.35
2022-10-26T06:30:02.738Z,10.52
2022-10-26T06:32:30.833Z,10.56
2022-10-26T06:35:10.961Z,10.57
2022-10-26T06:37:38.598Z,10.68
2022-10-26T06:40:07.792Z,10.77
2022-10-26T06:42:37.099Z,10.82
2022-10-26T06:45:05.473Z,10.85
2022-10-26T06:47:35.937Z,10.68
2022-10-26T06:50:07.421Z,10.96
2022-10-26T06:52:36.825Z,11.11
2022-10-26T06:55:05.352Z,11.22
2022-10-26T06:57:35.726Z,11.25
2022-10-26T07:00:06.807Z,11.03
2022-10-26T07:02:34.369Z,10.99
2022-10-26T07:05:01.833Z,11.18
2022-10-26T07:07:31.026Z,11.18
2022-10-26T07:09:58.412Z,11.28
2022-10-26T07:12:29.591Z,11.25
2022-10-26T07:15:00.620Z,11.16
2022-10-26T07:17:30.436Z,11.36
2022-10-26T07:19:57.902Z,11.40
2022-10-26T07:22:25.777Z,11.51
2022-10-26T07:24:53.232Z,11.46
2022-10-26T07:27:20.793Z,11.49
2022-10-26T07:29:48.164Z,11.52
2022-10-26T07:32:15.527Z,11.58
2022-10-26T07:34:44.244Z,11.69
2022-10-26T07:37:11.595Z,11.57
2022-10-26T07:39:39.019Z,11.78
2022-10-26T07:42:06.472Z,11.82
2022-10-26T07:44:33.827Z,11.91
2022-10-26T07:47:01.252Z,11.96
2022-10-26T07:49:28.608Z,12.00
2022-10-26T07:51:57.329Z,12.08
2022-10-26T07:54:24.724Z,12.06
2022-10-26T07:56:52.713Z,12.29
2022-10-26T07:59:20.174Z,12.40
2022-10-26T08:01:47.839Z,12.32
2022-10-26T08:04:15.697Z,12.39
2022-10-26T08:06:43.102Z,12.54
2022-10-26T08:09:11.898Z,12.56
2022-10-26T08:11:39.375Z,12.47
2022-10-26T08:14:06.784Z,12.81
2022-10-26T08:16:35.059Z,12.83
2022-10-26T08:19:02.602Z,13.21
2022-10-26T08:21:40.206Z,13.02
2022-10-26T08:24:08.433Z,13.07
2022-10-26T08:26:38.256Z,13.06
2022-10-26T08:29:05.641Z,13.07
2022-10-26T08:31:33.629Z,13.15
2022-10-26T08:34:01.706Z,13.22
2022-10-26T08:36:29.518Z,13.26
2022-10-26T08:41:38.137Z,13.52
2022-10-26T08:44:12.346Z,13.46
2022-10-26T08:46:42.270Z,13.56
2022-10-26T08:49:20.121Z,13.79
2022-10-26T08:51:48.652Z,13.53
2022-10-26T08:54:19.625Z,13.84
2022-10-26T08:56:51.133Z,13.70
2022-10-26T08:59:25.277Z,13.86
2022-10-26T09:01:52.721Z,13.97
2022-10-26T09:04:24.959Z,14.22
2022-10-26T09:06:58.137Z,14.18
2022-10-26T09:09:29.889Z,13.95
2022-10-26T09:12:05.361Z,13.80
2022-10-26T09:14:40.485Z,14.02
2022-10-26T09:17:13.131Z,14.17
2022-10-26T09:20:03.063Z,14.38
2022-10-26T09:22:34.857Z,14.39
2022-10-26T09:25:08.011Z,14.47
2022-10-26T09:27:40.210Z,14.49
2022-10-26T09:30:15.280Z,14.72
2022-10-26T09:32:46.261Z,14.77
2022-10-26T09:35:16.430Z,14.68
2022-10-26T09:37:47.511Z,14.68
2022-10-26T09:40:19.760Z,14.80
2022-10-26T09:42:52.722Z,15.22
2022-10-26T09:45:23.660Z,15.49
2022-10-26T09:47:53.408Z,15.43
2022-10-26T09:50:24.614Z,15.53
2022-10-26T09:52:52.304Z,15.79
2022-10-26T09:55:20.768Z,15.89
2022-10-26T09:57:51.916Z,15.95
2022-10-26T10:00:26.706Z,16.03
2022-10-26T10:02:55.311Z,16.11
2022-10-26T10:05:50.188Z,16.15
2022-10-26T10:08:18.998Z,16.24
2022-10-26T10:11:01.474Z,16.51
2022-10-26T10:13:32.060Z,16.53
2022-10-26T10:16:05.608Z,16.70
2022-10-26T10:18:33.703Z,16.89
2022-10-26T10:21:01.908Z,17.14
2022-10-26T10:23:31.980Z,16.88
2022-10-26T10:26:01.190Z,17.02
2022-10-26T10:28:30.444Z,17.34
2022-10-26T10:31:00.269Z,17.49
2022-10-26T10:33:35.934Z,17.60
2022-10-26T10:36:05.664Z,17.68
2022-10-26T10:38:38.633Z,17.83
2022-10-26T10:41:06.899Z,17.97
2022-10-26T10:43:35.607Z,18.32
2022-10-26T10:46:03.005Z,18.30
2022-10-26T10:48:34.655Z,18.58
2022-10-26T10:51:12.201Z,19.00
2022-10-26T10:53:48.287Z,18.94
2022-10-26T10:56:33.060Z,19.03
2022-10-26T10:59:11.993Z,19.20
2022-10-26T11:01:41.452Z,19.60
2022-10-26T11:04:26.508Z,19.70
2022-10-26T11:06:56.418Z,19.76
2022-10-26T11:09:27.919Z,19.95
2022-10-26T11:11:58.145Z,19.77
2022-10-26T11:14:31.348Z,19.75
2022-10-26T11:17:04.493Z,20.05
2022-10-26T11:19:34.971Z,19.92
2022-10-26T11:22:03.922Z,20.25
2022-10-26T11:24:35.138Z,20.24
2022-10-26T11:27:07.753Z,20.52
2022-10-26T11:29:42.494Z,20.45
2022-10-26T11:32:16.675Z,20.60
2022-10-26T11:34:49.043Z,20.47
2022-10-26T11:37:23.001Z,20.64
2022-10-26T11:40:02.865Z,20.83
2022-10-26T11:42:35.757Z,20.92
2022-10-26T11:45:11.946Z,20.99
2022-10-26T11:47:43.760Z,21.29
2022-10-26T11:50:17.684Z,21.32
2022-10-26T11:52:48.708Z,20.92
2022-10-26T11:55:16.478Z,21.12
2022-10-26T11:57:46.460Z,20.89
2022-10-26T12:00:18.621Z,21.03
2022-10-26T12:02:48.887Z,21.01
2022-10-26T12:05:21.925Z,21.02
2022-10-26T12:07:51.723Z,21.00
2022-10-26T12:10:26.064Z,20.55
2022-10-26T12:12:58.317Z,20.78
2022-10-26T12:15:39.989Z,20.83
2022-10-26T12:18:43.182Z,20.23
2022-10-26T12:21:12.516Z,20.02
2022-10-26T12:23:54.762Z,19.78
2022-10-26T12:26:52.417Z,19.73
2022-10-26T12:29:45.402Z,19.44
2022-10-26T12:32:56.414Z,19.52
2022-10-26T12:35:45.272Z,19.09
2022-10-26T12:38:49.467Z,19.36
2022-10-26T12:41:24.923Z,19.67
2022-10-26T12:43:57.188Z,19.86
2022-10-26T12:46:43.180Z,20.16
2022-10-26T12:49:49.632Z,20.62
2022-10-26T12:52:28.753Z,20.72
2022-10-26T12:55:16.161Z,20.94
2022-10-26T12:57:49.375Z,21.00
2022-10-26T13:00:18.322Z,20.85
2022-10-26T13:03:00.363Z,20.58
2022-10-26T13:05:37.126Z,20.42
2022-10-26T13:08:08.062Z,20.28
2022-10-26T13:10:39.389Z,20.51
2022-10-26T13:13:08.281Z,20.25
2022-10-26T13:15:39.522Z,20.25
2022-10-26T13:18:10.944Z,20.04
2022-10-26T13:20:53.510Z,19.96
2022-10-26T13:23:26.781Z,19.75
2022-10-26T13:26:05.879Z,19.77
2022-10-26T13:28:43.664Z,19.58
2022-10-26T13:31:14.503Z,19.74
2022-10-26T13:33:43.176Z,19.88
2022-10-26T13:36:18.325Z,19.60
2022-10-26T13:38:47.965Z,19.53
2022-10-26T13:41:23.120Z,19.45
2022-10-26T13:43:51.376Z,19.88
2022-10-26T13:46:28.740Z,19.90
2022-10-26T13:49:01.530Z,19.66
2022-10-26T13:51:38.377Z,19.50
2022-10-26T13:54:15.994Z,19.26
2022-10-26T13:56:49.593Z,19.57
2022-10-26T14:01:44.669Z,19.55
2022-10-26T14:04:16.049Z,19.65
2022-10-26T14:06:45.226Z,19.54
2022-10-26T14:09:15.537Z,19.53
2022-10-26T14:11:47.941Z,19.52
2022-10-26T14:14:18.200Z,19.24
2022-10-26T14:16:46.490Z,19.17
2022-10-26T14:19:16.365Z,19.28
2022-10-26T14:21:49.698Z,19.22
2022-10-26T14:24:35.819Z,19.09
2022-10-26T14:27:16.004Z,19.10
2022-10-26T14:29:46.916Z,19.04
2022-10-26T14:32:21.536Z,18.99
2022-10-26T14:34:48.970Z,19.21
2022-10-26T14:37:25.733Z,18.99
2022-10-26T14:39:54.641Z,19.20
2022-10-26T14:42:26.525Z,19.00
2022-10-26T14:44:54.009Z,19.01
2022-10-26T14:47:25.206Z,18.98
2022-10-26T14:49:55.000Z,18.98
2022-10-26T14:52:26.549Z,18.86
2022-10-26T14:55:02.547Z,18.60
2022-10-26T14:57:32.338Z,18.67
2022-10-26T15:00:15.370Z,18.47
2022-10-26T15:02:42.970Z,18.71
2022-10-26T15:05:20.459Z,18.75
2022-10-26T15:07:50.540Z,18.79
2022-10-26T15:10:47.841Z,18.71
2022-10-26T15:13:21.933Z,18.72
2022-10-26T15:15:51.016Z,18.32
2022-10-26T15:18:22.674Z,18.47
2022-10-26T15:20:51.190Z,18.45
2022-10-26T15:23:18.778Z,18.40
2022-10-26T15:25:55.184Z,18.34
2022-10-26T15:28:25.082Z,18.28
2022-10-26T15:31:03.624Z,18.43
2022-10-26T15:33:31.830Z,18.23
2022-10-26T15:36:13.788Z,17.92
2022-10-26T15:38:41.265Z,17.80
2022-10-26T15:41:15.917Z,17.88
2022-10-26T15:43:43.604Z,17.91
2022-10-26T15:46:11.070Z,17.71
2022-10-26T15:48:40.354Z,17.68
2022-10-26T15:51:08.284Z,17.68
2022-10-26T15:53:36.777Z,17.70
2022-10-26T15:56:06.517Z,17.58
2022-10-26T15:58:35.228Z,17.57
2022-10-26T16:01:02.713Z,17.50
2022-10-26T16:03:30.137Z,17.50
2022-10-26T16:05:59.684Z,17.49
2022-10-26T16:08:28.694Z,17.45
2022-10-26T16:10:56.218Z,17.30
2022-10-26T16:13:23.633Z,17.28
2022-10-26T16:15:52.317Z,17.39
2022-10-26T16:18:19.887Z,17.37
2022-10-26T16:20:47.455Z,17.34
2022-10-26T16:23:14.892Z,17.21
2022-10-26T16:25:44.316Z,17.12
2022-10-26T16:28:12.878Z,17.11
2022-10-26T16:33:14.893Z,17.05
2022-10-26T16:35:42.277Z,17.06
2022-10-26T16:38:09.767Z,17.03
2022-10-26T16:40:37.169Z,17.04
2022-10-26T16:43:04.584Z,17.09
2022-10-26T16:45:32.005Z,17.00
2022-10-26T16:47:59.469Z,17.08
2022-10-26T16:50:29.290Z,17.05
2022-10-26T16:52:57.369Z,17.30
2022-10-26T16:55:24.774Z,17.06
2022-10-26T16:57:52.487Z,17.04
2022-10-26T17:00:20.203Z,16.98
2022-10-26T17:02:47.647Z,17.17
2022-10-26T17:05:15.514Z,17.14
2022-10-26T17:07:44.294Z,17.02
2022-10-26T17:10:11.661Z,16.79
2022-10-26T17:12:38.983Z,16.72
2022-10-26T17:15:07.437Z,16.55
2022-10-26T17:17:34.813Z,16.80
2022-10-26T17:20:02.218Z,16.69
2022-10-26T17:22:29.662Z,16.63
2022-10-26T17:24:59.160Z,16.76
2022-10-26T17:27:26.652Z,16.67
2022-10-26T17:29:54.014Z,16.62
2022-10-26T17:32:22.244Z,16.62
2022-10-26T17:34:49.582Z,16.44
2022-10-26T17:37:17.034Z,16.52
2022-10-26T17:39:44.486Z,16.55
2022-10-26T17:42:14.556Z,16.34
2022-10-26T17:44:41.964Z,16.36
2022-10-26T17:47:09.785Z,16.53
2022-10-26T17:49:37.154Z,16.52
2022-10-26T17:52:05.819Z,16.53
2022-10-26T17:54:33.407Z,16.36
2022-10-26T17:57:01.000Z,16.38
2022-10-26T17:59:30.083Z,16.34
2022-10-26T18:01:57.751Z,16.43
2022-10-26T18:04:25.200Z,16.35
2022-10-26T18:06:52.622Z,16.37
2022-10-26T18:09:20.067Z,16.23
2022-10-26T18:11:49.553Z,16.32
2022-10-26T18:14:22.543Z,16.29
2022-10-26T18:16:51.252Z,16.27
2022-10-26T18:19:18.631Z,16.27
2022-10-26T18:21:46.004Z,16.20
2022-10-26T18:24:13.432Z,16.28
2022-10-26T18:26:40.977Z,16.09
2022-10-26T18:29:08.366Z,16.12
2022-10-26T18:31:35.922Z,16.19
2022-10-26T18:34:06.288Z,16.13
2022-10-26T18:36:33.962Z,16.10
2022-10-26T18:39:01.776Z,16.04
2022-10-26T18:41:29.612Z,16.02
2022-10-26T18:43:58.681Z,15.79
2022-10-26T18:46:28.025Z,15.75
2022-10-26T18:48:56.095Z,15.84
2022-10-26T18:51:28.617Z,15.98
2022-10-26T18:53:57.442Z,15.84
2022-10-26T18:56:26.451Z,15.79
2022-10-26T18:58:58.464Z,15.64
2022-10-26T19:01:29.034Z,15.69
2022-10-26T19:03:59.224Z,15.72
2022-10-26T19:06:33.497Z,15.80
2022-10-26T19:09:03.280Z,15.82
2022-10-26T19:11:33.027Z,15.97
2022-10-26T19:14:02.399Z,16.01
2022-10-26T19:16:45.144Z,16.00
2022-10-26T19:19:17.443Z,15.99
2022-10-26T19:21:49.126Z,16.04
2022-10-26T19:24:19.785Z,15.96
2022-10-26T19:26:50.774Z,15.94
2022-10-26T19:29:20.930Z,15.87
2022-10-26T19:31:52.583Z,15.79
2022-10-26T19:34:21.455Z,15.79
2022-10-26T19:36:51.761Z,15.64
2022-10-26T19:39:20.913Z,15.64
2022-10-26T19:41:49.093Z,15.50
2022-10-26T19:44:19.715Z,15.41
2022-10-26T19:46:48.966Z,15.44
2022-10-26T19:49:18.188Z,15.46
2022-10-26T19:51:47.782Z,15.58
2022-10-26T19:54:16.678Z,15.73
2022-10-26T19:56:46.318Z,15.50
2022-10-26T19:59:13.945Z,15.23
2022-10-26T20:01:41.460Z,15.32
2022-10-26T20:04:08.844Z,15.07
2022-10-26T20:06:36.293Z,15.15
2022-10-26T20:09:04.667Z,15.02
2022-10-26T20:11:36.321Z,15.20
2022-10-26T20:14:06.346Z,15.17
2022-10-26T20:16:33.717Z,15.06
2022-10-26T20:19:01.602Z,14.97
2022-10-26T20:21:29.129Z,15.10
2022-10-26T20:23:56.517Z,15.05
2022-10-26T20:26:27.452Z,15.12
2022-10-26T20:28:57.355Z,15.05
2022-10-26T20:31:24.966Z,15.00
2022-10-26T20:33:53.100Z,14.98
2022-10-26T20:36:22.578Z,15.18
2022-10-26T20:38:51.819Z,15.15
2022-10-26T20:41:19.805Z,15.16
2022-10-26T20:43:47.851Z,15.10
2022-10-26T20:46:23.077Z,14.98
2022-10-26T20:48:51.173Z,14.93
2022-10-26T20:51:23.676Z,14.93
2022-10-26T20:54:00.338Z,14.88
2022-10-26T20:56:28.129Z,14.87
2022-10-26T20:58:57.115Z,15.09
2022-10-26T21:01:27.969Z,14.95
2022-10-26T21:03:56.271Z,15.14
2022-10-26T21:06:24.053Z,15.16
2022-10-26T21:08:52.264Z,15.21
2022-10-26T21:11:20.694Z,15.03
2022-10-26T21:13:49.649Z,15.22
2022-10-26T21:16:17.847Z,15.03
2022-10-26T21:18:46.630Z,15.02
2022-10-26T21:21:14.018Z,14.97
2022-10-26T21:23:41.955Z,14.97
2022-10-26T21:26:09.992Z,14.90
2022-10-26T21:28:38.923Z,14.91
2022-10-26T21:31:07.889Z,15.17
2022-10-26T21:33:35.269Z,15.36
2022-10-26T21:36:05.895Z,15.43
2022-10-26T21:38:33.922Z,15.43
2022-10-26T21:41:05.242Z,15.40
2022-10-26T21:43:32.854Z,15.44
2022-10-26T21:46:03.510Z,15.35
2022-10-26T21:48:32.150Z,15.26
2022-10-26T21:51:01.684Z,15.35
2022-10-26T21:53:30.597Z,15.29
2022-10-26T21:56:01.613Z,15.16
2022-10-26T21:58:29.817Z,15.39
2022-10-26T22:01:05.019Z,15.33
2022-10-26T22:03:32.598Z,15.22
2022-10-26T22:05:59.977Z,15.17
2022-10-26T22:08:27.455Z,15.11
2022-10-26T22:10:56.182Z,15.33
2022-10-26T22:13:24.077Z,15.29
2022-10-26T22:16:01.450Z,15.04
2022-10-26T22:18:28.868Z,15.07
2022-10-26T22:20:57.701Z,14.78
2022-10-26T22:23:25.090Z,14.76
2022-10-26T22:25:52.445Z,14.52
2022-10-26T22:28:21.149Z,14.48
2022-10-26T22:30:48.701Z,14.50
2022-10-26T22:33:16.109Z,14.60
2022-10-26T22:35:43.545Z,14.68
2022-10-26T22:38:10.877Z,14.59
2022-10-26T22:40:38.190Z,14.73
2022-10-26T22:43:05.568Z,14.49
2022-10-26T22:45:34.265Z,14.20
2022-10-26T22:48:01.639Z,14.21
2022-10-26T22:50:29.042Z,14.51
2022-10-26T22:52:56.358Z,14.37
2022-10-26T22:55:23.731Z,14.46
2022-10-26T22:57:51.280Z,14.53
2022-10-26T23:00:19.231Z,14.19
2022-10-26T23:02:47.908Z,14.35
2022-10-26T23:05:15.467Z,14.40
2022-10-26T23:07:42.792Z,14.33
2022-10-26T23:10:11.127Z,14.35
2022-10-26T23:12:38.841Z,14.14
2022-10-26T23:15:06.781Z,14.25
2022-10-26T23:17:34.149Z,14.16
2022-10-26T23:20:02.814Z,14.21
2022-10-26T23:22:30.129Z,14.30
2022-10-26T23:24:57.488Z,14.51
2022-10-26T23:27:24.859Z,14.53
2022-10-26T23:29:52.236Z,14.67
2022-10-26T23:32:19.804Z,14.68
2022-10-26T23:34:47.344Z,14.70
2022-10-26T23:37:19.305Z,14.86
2022-10-26T23:39:46.656Z,14.99
2022-10-26T23:42:14.024Z,14.87
2022-10-26T23:44:41.687Z,15.08
2022-10-26T23:47:09.180Z,15.05
2022-10-26T23:49:36.516Z,15.11
2022-10-26T23:52:03.872Z,15.03
2022-10-26T23:54:32.537Z,15.12
2022-10-26T23:56:59.859Z,14.99
2022-10-26T23:59:27.234Z,15.17
